createdAt,value
2017-05-30T00:00:33.491Z,976.5
2017-05-30T00:01:36.044Z,976.6
2017-05-30T00:02:38.560Z,976.6
2017-05-30T00:03:41.074Z,976.5
2017-05-30T00:04:43.529Z,976.6
2017-05-30T00:05:47.633Z,976.6
2017-05-30T00:06:50.094Z,976.5
2017-05-30T00:07:52.625Z,976.5
2017-05-30T00:08:55.111Z,976.5
2017-05-30T00:09:57.674Z,976.5
2017-05-30T00:11:00.624Z,976.5
2017-05-30T00:12:03.104Z,976.5
2017-05-30T00:13:07.109Z,976.5
2017-05-30T00:14:09.558Z,976.6
2017-05-30T00:15:12.341Z,976.5
2017-05-30T00:16:14.820Z,976.5
2017-05-30T00:17:17.497Z,976.5
2017-05-30T00:18:20.039Z,976.5
2017-05-30T00:19:22.554Z,976.5
2017-05-30T00:20:25.050Z,976.5
2017-05-30T00:21:27.615Z,976.5
2017-05-30T00:22:30.142Z,976.5
2017-05-30T00:23:32.668Z,976.5
2017-05-30T00:24:35.075Z,976.5
2017-05-30T00:25:37.609Z,976.5
2017-05-30T00:26:40.286Z,976.5
2017-05-30T00:27:42.876Z,976.5
2017-05-30T00:28:45.666Z,976.5
2017-05-30T00:29:48.446Z,976.5
2017-05-30T00:30:50.911Z,976.5
2017-05-30T00:31:53.798Z,976.5
2017-05-30T00:32:56.403Z,976.4
2017-05-30T00:33:58.854Z,976.5
2017-05-30T00:35:01.357Z,976.4
2017-05-30T00:36:03.894Z,976.5
2017-05-30T00:37:06.516Z,976.5
2017-05-30T00:38:08.999Z,976.4
2017-05-30T00:39:11.578Z,976.5
2017-05-30T00:40:15.119Z,976.5
2017-05-30T00:41:18.262Z,976.5
2017-05-30T00:42:20.765Z,976.4
2017-05-30T00:43:23.204Z,976.4
2017-05-30T00:44:25.916Z,976.5
2017-05-30T00:45:28.724Z,976.4
2017-05-30T00:46:31.223Z,976.4
2017-05-30T00:47:33.680Z,976.4
2017-05-30T00:48:36.190Z,976.4
2017-05-30T00:49:38.829Z,976.3
2017-05-30T00:50:42.242Z,976.4
2017-05-30T00:51:44.680Z,976.4
2017-05-30T00:52:47.077Z,976.4
2017-05-30T00:53:49.687Z,976.3
2017-05-30T00:54:52.156Z,976.4
2017-05-30T00:55:54.610Z,976.3
2017-05-30T00:56:57.070Z,976.3
2017-05-30T00:57:59.556Z,976.3
2017-05-30T00:59:02.048Z,976.3
2017-05-30T01:00:12.401Z,976.2
2017-05-30T01:01:14.907Z,976.2
2017-05-30T01:02:18.078Z,976.2
2017-05-30T01:03:20.580Z,976.2
2017-05-30T01:04:23.105Z,976.2
2017-05-30T01:05:26.803Z,976.2
2017-05-30T01:06:29.334Z,976.2
2017-05-30T01:07:31.774Z,976.2
2017-05-30T01:08:34.281Z,976.2
2017-05-30T01:09:36.681Z,976.2
2017-05-30T01:10:39.315Z,976.2
2017-05-30T01:11:41.720Z,976.2
2017-05-30T01:12:44.204Z,976.2
2017-05-30T01:13:46.678Z,976.2
2017-05-30T01:14:49.182Z,976.2
2017-05-30T01:15:51.795Z,976.2
2017-05-30T01:16:54.858Z,976.2
2017-05-30T01:17:57.410Z,976.2
2017-05-30T01:18:59.916Z,976.2
2017-05-30T01:20:02.522Z,976.2
2017-05-30T01:21:06.036Z,976.2
2017-05-30T01:22:09.269Z,976.2
2017-05-30T01:23:11.744Z,976.2
2017-05-30T01:24:14.237Z,976.3
2017-05-30T01:25:17.565Z,976.2
2017-05-30T01:26:20.280Z,976.2
2017-05-30T01:27:22.735Z,976.3
2017-05-30T01:28:25.315Z,976.2
2017-05-30T01:29:27.873Z,976.3
2017-05-30T01:30:30.379Z,976.3
2017-05-30T01:31:33.486Z,976.3
2017-05-30T01:32:36.051Z,976.2
2017-05-30T01:33:38.664Z,976.2
2017-05-30T01:34:41.335Z,976.2
2017-05-30T01:35:44.343Z,976.3
2017-05-30T01:36:47.043Z,976.2
2017-05-30T01:37:49.528Z,976.2
2017-05-30T01:38:51.948Z,976.2
2017-05-30T01:39:54.413Z,976.2
2017-05-30T01:40:56.876Z,976.2
2017-05-30T01:41:59.935Z,976.3
2017-05-30T01:43:02.483Z,976.2
2017-05-30T01:44:05.860Z,976.3
2017-05-30T01:45:09.823Z,976.3
2017-05-30T01:46:12.548Z,976.3
2017-05-30T01:47:15.072Z,976.2
2017-05-30T01:48:17.576Z,976.3
2017-05-30T01:49:20.124Z,976.2
2017-05-30T01:50:22.637Z,976.2
2017-05-30T01:51:25.400Z,976.3
2017-05-30T01:52:28.087Z,976.3
2017-05-30T01:53:30.698Z,976.3
2017-05-30T01:54:33.329Z,976.4
2017-05-30T01:55:36.571Z,976.4
2017-05-30T01:56:39.037Z,976.4
2017-05-30T01:57:41.473Z,976.4
2017-05-30T01:58:44.015Z,976.4
2017-05-30T01:59:46.455Z,976.4
2017-05-30T02:00:49.066Z,976.5
2017-05-30T02:01:51.693Z,976.6
2017-05-30T02:02:54.175Z,976.5
2017-05-30T02:03:56.602Z,976.5
2017-05-30T02:04:59.016Z,976.5
2017-05-30T02:06:01.457Z,976.6
2017-05-30T02:07:03.847Z,976.5
2017-05-30T02:08:06.233Z,976.5
2017-05-30T02:09:08.741Z,976.5
2017-05-30T02:10:11.564Z,976.5
2017-05-30T02:11:14.268Z,976.5
2017-05-30T02:12:16.805Z,976.5
2017-05-30T02:13:19.343Z,976.5
2017-05-30T02:14:21.909Z,976.5
2017-05-30T02:15:24.390Z,976.5
2017-05-30T02:16:27.028Z,976.5
2017-05-30T02:17:29.638Z,976.5
2017-05-30T02:18:32.155Z,976.4
2017-05-30T02:19:34.614Z,976.5
2017-05-30T02:20:37.127Z,976.5
2017-05-30T02:21:39.579Z,976.4
2017-05-30T02:22:41.989Z,976.5
2017-05-30T02:23:44.434Z,976.5
2017-05-30T02:24:46.939Z,976.5
2017-05-30T02:25:49.611Z,976.4
2017-05-30T02:26:52.097Z,976.4
2017-05-30T02:27:54.582Z,976.4
2017-05-30T02:28:57.206Z,976.4
2017-05-30T02:30:00.362Z,976.5
2017-05-30T02:31:02.873Z,976.5
2017-05-30T02:32:05.636Z,976.5
2017-05-30T02:33:09.655Z,976.5
2017-05-30T02:34:12.228Z,976.4
2017-05-30T02:35:15.603Z,976.5
2017-05-30T02:36:18.220Z,976.5
2017-05-30T02:37:20.806Z,976.4
2017-05-30T02:38:23.362Z,976.4
2017-05-30T02:39:25.922Z,976.5
2017-05-30T02:40:28.429Z,976.5
2017-05-30T02:41:30.936Z,976.4
2017-05-30T02:42:33.370Z,976.4
2017-05-30T02:43:35.831Z,976.5
2017-05-30T02:44:38.337Z,976.5
2017-05-30T02:45:40.810Z,976.5
2017-05-30T02:46:43.345Z,976.4
2017-05-30T02:47:45.811Z,976.5
2017-05-30T02:48:48.267Z,976.6
2017-05-30T02:49:50.725Z,976.5
2017-05-30T02:50:53.199Z,976.5
2017-05-30T02:51:55.820Z,976.5
2017-05-30T02:52:58.242Z,976.5
2017-05-30T02:54:00.963Z,976.5
2017-05-30T02:55:06.845Z,976.5
2017-05-30T02:56:09.304Z,976.5
2017-05-30T02:57:11.831Z,976.5
2017-05-30T02:58:14.374Z,976.6
2017-05-30T02:59:17.035Z,976.5
2017-05-30T03:00:19.591Z,976.5
2017-05-30T03:01:22.196Z,976.6
2017-05-30T03:02:24.675Z,976.6
2017-05-30T03:03:27.349Z,976.7
2017-05-30T03:04:29.851Z,976.6
2017-05-30T03:05:32.409Z,976.6
2017-05-30T03:06:34.819Z,976.6
2017-05-30T03:07:37.276Z,976.7
2017-05-30T03:08:39.780Z,976.6
2017-05-30T03:09:42.215Z,976.6
2017-05-30T03:10:44.701Z,976.6
2017-05-30T03:11:47.164Z,976.7
2017-05-30T03:12:50.975Z,976.5
2017-05-30T03:13:53.385Z,976.7
2017-05-30T03:14:55.907Z,976.7
2017-05-30T03:15:58.717Z,976.7
2017-05-30T03:17:01.244Z,976.7
2017-05-30T03:18:03.679Z,976.7
2017-05-30T03:19:06.137Z,976.7
2017-05-30T03:20:08.751Z,976.7
2017-05-30T03:21:11.223Z,976.7
2017-05-30T03:22:13.844Z,976.7
2017-05-30T03:23:16.338Z,976.7
2017-05-30T03:24:18.804Z,976.7
2017-05-30T03:25:21.454Z,976.7
2017-05-30T03:26:24.065Z,976.8
2017-05-30T03:27:26.555Z,976.8
2017-05-30T03:28:29.038Z,976.8
2017-05-30T03:29:31.478Z,976.8
2017-05-30T03:30:33.976Z,976.8
2017-05-30T03:31:36.456Z,976.8
2017-05-30T03:32:38.892Z,976.8
2017-05-30T03:33:41.376Z,976.6
2017-05-30T03:34:43.834Z,976.8
2017-05-30T03:35:46.265Z,976.8
2017-05-30T03:36:48.923Z,976.8
2017-05-30T03:37:51.388Z,976.8
2017-05-30T03:38:53.821Z,976.7
2017-05-30T03:39:56.318Z,976.8
2017-05-30T03:40:58.799Z,976.8
2017-05-30T03:42:01.311Z,976.8
2017-05-30T03:43:04.372Z,976.5
2017-05-30T03:44:06.807Z,976.8
2017-05-30T03:45:09.346Z,976.8
2017-05-30T03:46:11.901Z,976.8
2017-05-30T03:47:14.598Z,976.8
2017-05-30T03:48:17.120Z,976.8
2017-05-30T03:49:19.829Z,976.8
2017-05-30T03:50:22.423Z,976.9
2017-05-30T03:51:24.904Z,976.8
2017-05-30T03:52:27.466Z,976.8
2017-05-30T03:53:29.882Z,976.8
2017-05-30T03:54:32.356Z,976.8
2017-05-30T03:55:35.085Z,976.8
2017-05-30T03:56:37.549Z,976.9
2017-05-30T03:57:39.994Z,976.8
2017-05-30T03:58:42.439Z,976.9
2017-05-30T03:59:45.509Z,976.9
2017-05-30T04:00:47.989Z,976.9
2017-05-30T04:01:50.486Z,976.9
2017-05-30T04:02:52.930Z,976.9
2017-05-30T04:03:55.411Z,976.9
2017-05-30T04:04:57.854Z,976.9
2017-05-30T04:06:02.054Z,976.9
2017-05-30T04:07:04.706Z,976.9
2017-05-30T04:08:07.173Z,976.9
2017-05-30T04:09:09.637Z,976.9
2017-05-30T04:10:12.174Z,976.9
2017-05-30T04:11:14.679Z,976.9
2017-05-30T04:12:17.237Z,976.9
2017-05-30T04:13:19.874Z,976.9
2017-05-30T04:14:22.705Z,977
2017-05-30T04:15:25.290Z,977
2017-05-30T04:16:28.792Z,977
2017-05-30T04:17:31.304Z,977
2017-05-30T04:18:33.936Z,977
2017-05-30T04:19:36.369Z,977
2017-05-30T04:20:39.605Z,976.9
2017-05-30T04:21:42.072Z,977
2017-05-30T04:22:44.488Z,977
2017-05-30T04:23:46.954Z,977
2017-05-30T04:24:49.415Z,977
2017-05-30T04:25:52.023Z,976.9
2017-05-30T04:26:54.566Z,976.9
2017-05-30T04:27:57.067Z,976.9
2017-05-30T04:29:08.489Z,977
2017-05-30T04:30:11.372Z,977
2017-05-30T04:31:13.822Z,977
2017-05-30T04:32:16.289Z,977
2017-05-30T04:33:18.758Z,977
2017-05-30T04:34:21.370Z,977
2017-05-30T04:35:23.793Z,977
2017-05-30T04:36:26.252Z,977
2017-05-30T04:37:28.706Z,976.9
2017-05-30T04:38:31.159Z,977
2017-05-30T04:39:33.632Z,977
2017-05-30T04:40:36.348Z,976.9
2017-05-30T04:41:38.781Z,977
2017-05-30T04:42:41.365Z,976.9
2017-05-30T04:43:43.823Z,976.8
2017-05-30T04:44:46.357Z,976.9
2017-05-30T04:45:48.871Z,977
2017-05-30T04:46:51.400Z,977
2017-05-30T04:47:53.897Z,977
2017-05-30T04:48:56.394Z,977
2017-05-30T04:49:58.898Z,977.1
2017-05-30T04:51:01.398Z,977.1
2017-05-30T04:52:05.400Z,977.1
2017-05-30T04:53:08.385Z,977.1
2017-05-30T04:54:11.456Z,977.1
2017-05-30T04:55:14.094Z,976.9
2017-05-30T04:56:16.582Z,977.1
2017-05-30T04:57:19.198Z,977.1
2017-05-30T04:58:21.754Z,977
2017-05-30T04:59:24.299Z,977.2
2017-05-30T05:00:27.494Z,977.2
2017-05-30T05:01:30.203Z,977.3
2017-05-30T05:02:32.637Z,977.2
2017-05-30T05:03:35.170Z,977.2
2017-05-30T05:04:38.313Z,977.3
2017-05-30T05:05:40.936Z,977.4
2017-05-30T05:06:43.402Z,977.3
2017-05-30T05:07:45.886Z,977.4
2017-05-30T05:08:48.296Z,977.5
2017-05-30T05:09:50.882Z,977.5
2017-05-30T05:10:53.393Z,977.5
2017-05-30T05:11:55.941Z,977.4
2017-05-30T05:12:59.156Z,977.6
2017-05-30T05:14:02.238Z,977.6
2017-05-30T05:15:11.317Z,977.7
2017-05-30T05:16:15.269Z,977.7
2017-05-30T05:17:20.253Z,977.6
2017-05-30T05:18:22.866Z,977.7
2017-05-30T05:19:25.439Z,977.7
2017-05-30T05:20:28.268Z,977.7
2017-05-30T05:21:32.719Z,977.7
2017-05-30T05:22:35.594Z,977.7
2017-05-30T05:23:39.177Z,977.8
2017-05-30T05:24:41.668Z,977.8
2017-05-30T05:25:45.659Z,977.8
2017-05-30T05:26:50.359Z,977.8
2017-05-30T05:27:52.945Z,977.8
2017-05-30T05:28:56.250Z,977.7
2017-05-30T05:29:59.066Z,977.8
2017-05-30T05:31:02.287Z,977.8
2017-05-30T05:32:07.803Z,977.9
2017-05-30T05:33:10.572Z,977.9
2017-05-30T05:34:13.122Z,978
2017-05-30T05:35:17.169Z,978
2017-05-30T05:36:20.503Z,978
2017-05-30T05:37:23.763Z,978
2017-05-30T05:38:26.358Z,978.1
2017-05-30T05:39:29.368Z,978
2017-05-30T05:40:33.013Z,978
2017-05-30T05:41:35.685Z,977.9
2017-05-30T05:42:38.920Z,977.9
2017-05-30T05:43:42.146Z,978.1
2017-05-30T05:44:44.574Z,978.1
2017-05-30T05:45:47.943Z,978.1
2017-05-30T05:46:51.064Z,978.1
2017-05-30T05:47:54.295Z,978.1
2017-05-30T05:48:56.799Z,978.1
2017-05-30T05:49:59.299Z,978.1
2017-05-30T05:51:01.965Z,978.2
2017-05-30T05:52:11.175Z,978.1
2017-05-30T05:53:15.261Z,978.2
2017-05-30T05:54:19.140Z,978.1
2017-05-30T05:55:22.518Z,978.1
2017-05-30T05:56:26.681Z,978.2
2017-05-30T05:57:29.272Z,978.2
2017-05-30T05:58:31.931Z,978.2
2017-05-30T05:59:35.065Z,978.1
2017-05-30T06:00:37.669Z,978.2
2017-05-30T06:01:41.096Z,978.2
2017-05-30T06:02:43.628Z,978.2
2017-05-30T06:03:46.165Z,978.2
2017-05-30T06:04:48.746Z,978.2
2017-05-30T06:05:52.299Z,978.2
2017-05-30T06:06:55.996Z,978.2
2017-05-30T06:07:58.514Z,978.2
2017-05-30T06:09:01.156Z,978.2
2017-05-30T06:10:07.066Z,978.2
2017-05-30T06:11:10.416Z,978.2
2017-05-30T06:12:12.936Z,978.2
2017-05-30T06:13:15.503Z,978.2
2017-05-30T06:14:19.001Z,978.2
2017-05-30T06:15:22.429Z,978.1
2017-05-30T06:16:24.997Z,978.2
2017-05-30T06:17:27.783Z,978.1
2017-05-30T06:18:33.242Z,978.2
2017-05-30T06:19:35.851Z,978
2017-05-30T06:20:42.524Z,978.2
2017-05-30T06:21:45.210Z,978.3
2017-05-30T06:22:49.778Z,978.1
2017-05-30T06:23:52.317Z,978.2
2017-05-30T06:24:54.813Z,978.2
2017-05-30T06:25:57.406Z,978.2
2017-05-30T06:27:00.090Z,978.3
2017-05-30T06:28:03.620Z,978.2
2017-05-30T06:29:07.828Z,978.3
2017-05-30T06:30:14.278Z,978.3
2017-05-30T06:31:16.811Z,978.5
2017-05-30T06:32:19.477Z,978.5
2017-05-30T06:33:27.033Z,978.5
2017-05-30T06:34:31.684Z,978.5
2017-05-30T06:35:35.575Z,978.5
2017-05-30T06:36:38.915Z,978.5
2017-05-30T06:37:41.731Z,978.5
2017-05-30T06:38:45.227Z,978.6
2017-05-30T06:39:47.679Z,978.5
2017-05-30T06:40:50.901Z,978.6
2017-05-30T06:41:53.661Z,978.7
2017-05-30T06:42:57.925Z,978.6
2017-05-30T06:44:00.571Z,978.6
2017-05-30T06:45:09.364Z,978.7
2017-05-30T06:46:12.740Z,978.7
2017-05-30T06:47:16.754Z,978.8
2017-05-30T06:48:21.451Z,978.8
2017-05-30T06:49:24.657Z,978.6
2017-05-30T06:50:28.625Z,978.8
2017-05-30T06:51:31.337Z,978.8
2017-05-30T06:52:34.010Z,978.8
2017-05-30T06:53:36.605Z,978.8
2017-05-30T06:54:40.600Z,978.7
2017-05-30T06:55:44.050Z,978.7
2017-05-30T06:56:53.100Z,978.7
2017-05-30T06:57:57.012Z,978.7
2017-05-30T06:59:00.277Z,978.6
2017-05-30T07:01:14.097Z,978.7
2017-05-30T07:02:16.675Z,978.7
2017-05-30T07:03:19.162Z,978.8
2017-05-30T07:04:23.149Z,978.8
2017-05-30T07:05:28.754Z,978.8
2017-05-30T07:06:31.421Z,978.7
2017-05-30T07:07:33.951Z,978.8
2017-05-30T07:08:37.637Z,978.8
2017-05-30T07:09:40.229Z,978.9
2017-05-30T07:10:43.457Z,978.8
2017-05-30T07:11:45.926Z,978.8
2017-05-30T07:12:49.510Z,978.8
2017-05-30T07:13:52.016Z,978.8
2017-05-30T07:14:55.031Z,978.8
2017-05-30T07:15:57.547Z,978.7
2017-05-30T07:17:00.209Z,978.8
2017-05-30T07:19:13.176Z,979
2017-05-30T07:20:18.918Z,978.9
2017-05-30T07:21:21.590Z,978.9
2017-05-30T07:22:24.863Z,978.9
2017-05-30T07:23:28.358Z,978.8
2017-05-30T07:24:31.109Z,978.7
2017-05-30T07:25:34.467Z,978.9
2017-05-30T07:26:40.921Z,978.8
2017-05-30T07:27:44.034Z,978.6
2017-05-30T07:28:50.352Z,978.7
2017-05-30T07:29:53.870Z,978.7
2017-05-30T07:31:00.041Z,978.7
2017-05-30T07:33:20.610Z,978.7
2017-05-30T07:34:23.593Z,978.8
2017-05-30T07:35:27.787Z,978.7
2017-05-30T07:36:30.667Z,978.7
2017-05-30T07:37:33.445Z,978.6
2017-05-30T07:38:39.085Z,978.7
2017-05-30T07:39:42.695Z,978.6
2017-05-30T07:40:45.455Z,978.6
2017-05-30T07:41:48.062Z,978.6
2017-05-30T07:42:50.674Z,978.6
2017-05-30T07:43:53.191Z,978.6
2017-05-30T07:44:55.757Z,978.6
2017-05-30T07:45:58.366Z,978.6
2017-05-30T07:47:00.983Z,978.6
2017-05-30T07:48:04.189Z,978.7
2017-05-30T07:49:07.077Z,978.6
2017-05-30T07:50:15.409Z,978.6
2017-05-30T07:51:19.446Z,978.6
2017-05-30T07:52:22.081Z,978.6
2017-05-30T07:53:24.787Z,978.5
2017-05-30T07:54:28.231Z,978.6
2017-05-30T07:55:31.002Z,978.6
2017-05-30T07:56:36.824Z,978.6
2017-05-30T07:57:40.859Z,978.6
2017-05-30T07:58:45.689Z,978.6
2017-05-30T07:59:49.032Z,978.6
2017-05-30T08:00:54.281Z,978.7
2017-05-30T08:01:57.990Z,978.6
2017-05-30T08:03:00.624Z,978.7
2017-05-30T08:04:05.181Z,978.5
2017-05-30T08:05:15.336Z,978.7
2017-05-30T08:06:18.448Z,978.6
2017-05-30T08:07:23.818Z,978.7
2017-05-30T08:08:28.571Z,978.5
2017-05-30T08:09:32.725Z,978.6
2017-05-30T08:10:37.709Z,978.6
2017-05-30T08:11:41.118Z,978.6
2017-05-30T08:12:43.776Z,978.6
2017-05-30T08:13:49.714Z,978.6
2017-05-30T08:14:56.642Z,978.6
2017-05-30T08:16:02.297Z,978.6
2017-05-30T08:17:13.986Z,978.6
2017-05-30T08:18:18.058Z,978.6
2017-05-30T08:19:24.372Z,978.6
2017-05-30T08:20:27.712Z,978.6
2017-05-30T08:21:31.099Z,978.6
2017-05-30T08:22:33.827Z,978.7
2017-05-30T08:23:37.729Z,978.7
2017-05-30T08:24:40.889Z,978.7
2017-05-30T08:25:44.367Z,978.7
2017-05-30T08:26:46.929Z,978.6
2017-05-30T08:27:49.703Z,978.7
2017-05-30T08:28:52.351Z,978.5
2017-05-30T08:29:55.462Z,978.6
2017-05-30T08:31:00.092Z,978.7
2017-05-30T08:32:04.620Z,978.6
2017-05-30T08:33:08.774Z,978.6
2017-05-30T08:34:13.626Z,978.6
2017-05-30T08:35:19.594Z,978.5
2017-05-30T08:36:22.204Z,978.7
2017-05-30T08:37:27.871Z,978.7
2017-05-30T08:38:30.872Z,978.5
2017-05-30T08:39:33.544Z,978.7
2017-05-30T08:40:40.259Z,978.7
2017-05-30T08:41:44.508Z,978.7
2017-05-30T08:42:47.886Z,978.5
2017-05-30T08:43:53.248Z,978.8
2017-05-30T08:44:55.909Z,978.8
2017-05-30T08:45:58.629Z,978.7
2017-05-30T08:47:02.346Z,978.7
2017-05-30T08:48:09.462Z,978.5
2017-05-30T08:49:13.071Z,978.6
2017-05-30T08:50:23.473Z,978.5
2017-05-30T08:51:26.192Z,978.6
2017-05-30T08:52:29.537Z,978.6
2017-05-30T08:53:32.915Z,978.7
2017-05-30T08:54:39.053Z,978.7
2017-05-30T08:55:51.703Z,978.7
2017-05-30T08:56:54.804Z,978.7
2017-05-30T08:57:57.407Z,978.7
2017-05-30T08:58:59.931Z,978.7
2017-05-30T09:01:12.328Z,978.7
2017-05-30T09:02:16.306Z,978.5
2017-05-30T09:03:23.429Z,978.7
2017-05-30T09:04:27.861Z,978.7
2017-05-30T09:05:32.567Z,978.9
2017-05-30T09:06:37.536Z,978.9
2017-05-30T09:07:47.462Z,978.9
2017-05-30T09:08:58.907Z,978.7
2017-05-30T09:11:25.356Z,978.8
2017-05-30T09:12:28.746Z,978.7
2017-05-30T09:13:35.385Z,978.6
2017-05-30T09:14:38.563Z,978.8
2017-05-30T09:15:42.544Z,978.8
2017-05-30T09:16:49.439Z,978.7
2017-05-30T09:17:52.649Z,978.7
2017-05-30T09:18:55.228Z,978.9
2017-05-30T09:19:58.619Z,978.9
2017-05-30T09:21:01.207Z,978.8
2017-05-30T09:23:14.134Z,978.9
2017-05-30T09:24:16.691Z,978.8
2017-05-30T09:25:21.165Z,978.8
2017-05-30T09:26:27.909Z,978.9
2017-05-30T09:27:30.598Z,978.8
2017-05-30T09:28:33.158Z,978.7
2017-05-30T09:29:35.908Z,978.6
2017-05-30T09:30:42.565Z,978.9
2017-05-30T09:31:45.816Z,978.9
2017-05-30T09:32:50.296Z,978.8
2017-05-30T09:33:53.070Z,978.8
2017-05-30T09:34:58.413Z,978.8
2017-05-30T09:36:01.918Z,978.8
2017-05-30T09:37:11.272Z,978.7
2017-05-30T09:38:15.532Z,978.7
2017-05-30T09:39:18.879Z,978.7
2017-05-30T09:40:22.790Z,978.8
2017-05-30T09:41:26.588Z,978.8
2017-05-30T09:42:32.950Z,978.6
2017-05-30T09:43:39.267Z,978.7
2017-05-30T09:44:42.592Z,978.8
2017-05-30T09:45:48.674Z,978.7
2017-05-30T09:46:51.478Z,978.7
2017-05-30T09:47:54.699Z,978.8
2017-05-30T09:48:58.186Z,978.7
2017-05-30T09:50:00.793Z,978.7
2017-05-30T09:51:10.796Z,978.5
2017-05-30T09:52:13.962Z,978.6
2017-05-30T09:53:16.669Z,978.7
2017-05-30T09:54:19.942Z,978.6
2017-05-30T09:55:23.164Z,978.7
2017-05-30T09:56:29.951Z,978.7
2017-05-30T09:57:35.729Z,978.7
2017-05-30T09:58:40.761Z,978.7
2017-05-30T09:59:44.583Z,978.7
2017-05-30T10:00:50.507Z,978.6
2017-05-30T10:01:53.168Z,978.5
2017-05-30T10:03:02.179Z,978.7
2017-05-30T10:04:12.043Z,978.6
2017-05-30T10:05:19.071Z,978.6
2017-05-30T10:06:23.123Z,978.6
2017-05-30T10:07:33.475Z,978.7
2017-05-30T10:08:37.371Z,978.7
2017-05-30T10:09:41.551Z,978.5
2017-05-30T10:10:50.245Z,978.7
2017-05-30T10:13:06.740Z,978.6
2017-05-30T10:14:10.987Z,978.6
2017-05-30T10:15:18.361Z,978.5
2017-05-30T10:16:21.941Z,978.6
2017-05-30T10:17:31.018Z,978.7
2017-05-30T10:18:36.976Z,978.7
2017-05-30T10:19:40.618Z,978.6
2017-05-30T10:20:46.871Z,978.7
2017-05-30T10:21:49.576Z,978.6
2017-05-30T10:22:53.385Z,978.6
2017-05-30T10:23:56.064Z,978.6
2017-05-30T10:24:58.747Z,978.6
2017-05-30T10:26:07.401Z,978.6
2017-05-30T10:27:10.936Z,978.6
2017-05-30T10:28:15.872Z,978.6
2017-05-30T10:30:32.594Z,978.6
2017-05-30T10:31:37.276Z,978.7
2017-05-30T10:32:40.967Z,978.6
2017-05-30T10:33:46.026Z,978.6
2017-05-30T10:34:51.099Z,978.6
2017-05-30T10:35:54.761Z,978.5
2017-05-30T10:36:58.180Z,978.6
2017-05-30T10:38:03.037Z,978.6
2017-05-30T10:39:10.639Z,978.6
2017-05-30T10:40:16.483Z,978.6
2017-05-30T10:41:19.263Z,978.7
2017-05-30T10:42:24.038Z,978.5
2017-05-30T10:43:27.966Z,978.7
2017-05-30T10:44:30.821Z,978.7
2017-05-30T10:45:34.172Z,978.5
2017-05-30T10:46:37.698Z,978.7
2017-05-30T10:47:41.064Z,978.7
2017-05-30T10:48:44.127Z,978.8
2017-05-30T10:49:48.900Z,978.6
2017-05-30T10:50:53.434Z,978.7
2017-05-30T10:51:57.085Z,978.7
2017-05-30T10:52:59.695Z,978.5
2017-05-30T10:54:06.013Z,978.7
2017-05-30T10:55:15.842Z,978.5
2017-05-30T10:56:21.196Z,978.5
2017-05-30T10:57:26.457Z,978.6
2017-05-30T10:58:31.120Z,978.6
2017-05-30T10:59:33.806Z,978.6
2017-05-30T11:00:41.150Z,978.7
2017-05-30T11:01:46.124Z,978.5
2017-05-30T11:02:48.651Z,978.7
2017-05-30T11:03:52.615Z,978.6
2017-05-30T11:04:55.223Z,978.6
2017-05-30T11:06:00.695Z,978.6
2017-05-30T11:07:05.269Z,978.7
2017-05-30T11:08:09.827Z,978.5
2017-05-30T11:09:14.081Z,978.6
2017-05-30T11:10:17.218Z,978.5
2017-05-30T11:11:26.441Z,978.6
2017-05-30T11:12:33.424Z,978.6
2017-05-30T11:13:39.555Z,978.6
2017-05-30T11:14:48.069Z,978.5
2017-05-30T11:15:53.482Z,978.5
2017-05-30T11:16:58.707Z,978.5
2017-05-30T11:19:16.919Z,978.5
2017-05-30T11:20:34.930Z,978.6
2017-05-30T11:21:40.675Z,978.4
2017-05-30T11:22:47.625Z,978.4
2017-05-30T11:23:53.731Z,978.4
2017-05-30T11:24:57.071Z,978.5
2017-05-30T11:26:03.193Z,978.3
2017-05-30T11:27:13.158Z,978.5
2017-05-30T11:28:18.027Z,978.5
2017-05-30T11:29:21.565Z,978.4
2017-05-30T11:31:45.306Z,978.5
2017-05-30T11:32:49.777Z,978.5
2017-05-30T11:33:52.530Z,978.5
2017-05-30T11:34:56.721Z,978.4
2017-05-30T11:36:08.688Z,978.4
2017-05-30T11:37:18.005Z,978.2
2017-05-30T11:38:23.055Z,978.3
2017-05-30T11:39:26.329Z,978.3
2017-05-30T11:40:32.015Z,978.3
2017-05-30T11:41:37.199Z,978.3
2017-05-30T11:42:42.704Z,978.3
2017-05-30T11:43:45.594Z,978.2
2017-05-30T11:44:51.168Z,978.3
2017-05-30T11:46:05.610Z,978.3
2017-05-30T11:47:12.297Z,978.3
2017-05-30T11:48:15.692Z,978.4
2017-05-30T11:49:21.673Z,978.3
2017-05-30T11:50:31.298Z,978.1
2017-05-30T11:51:36.020Z,978.2
2017-05-30T11:52:46.355Z,978.2
2017-05-30T11:53:54.628Z,978.2
2017-05-30T11:54:59.484Z,978.2
2017-05-30T11:56:18.779Z,978.1
2017-05-30T11:57:30.195Z,978.1
2017-05-30T11:58:35.010Z,978.1
2017-05-30T11:59:39.032Z,978.1
2017-05-30T12:00:45.653Z,978.1
2017-05-30T12:01:50.129Z,978.1
2017-05-30T12:02:53.967Z,978.2
2017-05-30T12:03:56.800Z,978.2
2017-05-30T12:04:59.414Z,978.3
2017-05-30T12:06:06.388Z,978.2
2017-05-30T12:07:12.198Z,978.2
2017-05-30T12:08:14.911Z,978.2
2017-05-30T12:09:19.618Z,978.2
2017-05-30T12:10:26.714Z,978.2
2017-05-30T12:11:33.239Z,978.2
2017-05-30T12:12:36.997Z,978.1
2017-05-30T12:13:41.884Z,978.1
2017-05-30T12:14:44.877Z,978.1
2017-05-30T12:15:48.367Z,978.1
2017-05-30T12:16:51.055Z,978.1
2017-05-30T12:17:55.567Z,978.2
2017-05-30T12:18:58.759Z,978.2
2017-05-30T12:20:01.468Z,978.2
2017-05-30T12:22:23.057Z,978.3
2017-05-30T12:24:39.784Z,978.4
2017-05-30T12:25:44.835Z,978.2
2017-05-30T12:26:47.761Z,978.4
2017-05-30T12:27:58.004Z,978.4
2017-05-30T12:29:01.829Z,978.5
2017-05-30T12:30:16.254Z,978.5
2017-05-30T12:31:20.129Z,978.5
2017-05-30T12:32:29.845Z,978.4
2017-05-30T12:33:36.824Z,978.3
2017-05-30T12:34:41.732Z,978.3
2017-05-30T12:35:46.072Z,978.2
2017-05-30T12:36:49.478Z,978.2
2017-05-30T12:37:52.874Z,978.2
2017-05-30T12:38:56.443Z,978.3
2017-05-30T12:39:59.552Z,978.3
2017-05-30T12:41:02.128Z,978.2
2017-05-30T12:42:09.783Z,978.2
2017-05-30T12:43:14.107Z,978.2
2017-05-30T12:44:17.925Z,978.2
2017-05-30T12:45:21.973Z,978.2
2017-05-30T12:46:26.359Z,978.3
2017-05-30T12:47:29.729Z,978.3
2017-05-30T12:48:33.966Z,978.1
2017-05-30T12:49:36.743Z,978.2
2017-05-30T12:50:42.369Z,978.2
2017-05-30T12:51:49.541Z,978.1
2017-05-30T12:52:52.278Z,978.2
2017-05-30T12:53:54.819Z,978.2
2017-05-30T12:54:57.432Z,978.3
2017-05-30T12:56:04.291Z,978.3
2017-05-30T12:57:07.895Z,978.3
2017-05-30T12:58:11.610Z,978.2
2017-05-30T12:59:15.045Z,978.1
2017-05-30T13:00:24.949Z,978
2017-05-30T13:01:30.461Z,977.9
2017-05-30T13:02:33.465Z,978
2017-05-30T13:03:38.031Z,978.1
2017-05-30T13:04:41.813Z,978.2
2017-05-30T13:05:49.982Z,978.2
2017-05-30T13:06:53.392Z,978.2
2017-05-30T13:07:56.004Z,978.1
2017-05-30T13:09:10.304Z,978.1
2017-05-30T13:10:19.334Z,978.1
2017-05-30T13:11:23.258Z,978.1
2017-05-30T13:12:28.982Z,978.2
2017-05-30T13:13:31.854Z,978.2
2017-05-30T13:14:36.678Z,978.2
2017-05-30T13:15:43.361Z,978.4
2017-05-30T13:16:49.801Z,978.3
2017-05-30T13:17:54.753Z,978.5
2017-05-30T13:18:58.974Z,978.5
2017-05-30T13:21:14.932Z,978.6
2017-05-30T13:22:19.029Z,978.6
2017-05-30T13:23:23.142Z,978.7
2017-05-30T13:24:29.368Z,978.6
2017-05-30T13:25:36.909Z,978.4
2017-05-30T13:26:44.676Z,978.5
2017-05-30T13:27:53.594Z,978.4
2017-05-30T13:28:56.265Z,978.6
2017-05-30T13:30:00.596Z,978.6
2017-05-30T13:31:12.056Z,978.6
2017-05-30T13:32:17.023Z,978.6
2017-05-30T13:33:23.440Z,978.7
2017-05-30T13:34:32.455Z,978.7
2017-05-30T13:35:37.939Z,978.6
2017-05-30T13:36:42.997Z,978.6
2017-05-30T13:37:46.466Z,978.4
2017-05-30T13:38:49.301Z,978.4
2017-05-30T13:39:53.060Z,978.6
2017-05-30T13:40:59.117Z,978.6
2017-05-30T13:42:02.583Z,978.6
2017-05-30T13:43:09.637Z,978.6
2017-05-30T13:44:12.319Z,978.6
2017-05-30T13:45:22.330Z,978.5
2017-05-30T13:46:26.442Z,978.7
2017-05-30T13:47:32.587Z,978.7
2017-05-30T13:48:39.120Z,978.7
2017-05-30T13:49:44.339Z,978.6
2017-05-30T13:52:03.109Z,978.6
2017-05-30T13:53:13.495Z,978.6
2017-05-30T13:54:16.226Z,978.5
2017-05-30T13:55:22.005Z,978.5
2017-05-30T13:56:29.179Z,978.5
2017-05-30T13:57:34.432Z,978.4
2017-05-30T13:58:39.329Z,978.4
2017-05-30T13:59:47.642Z,978.2
2017-05-30T14:01:01.752Z,978.3
2017-05-30T14:02:10.859Z,978.1
2017-05-30T14:03:19.019Z,978.3